createdAt,value
2022-08-22T00:02:43.366Z,5.40
2022-08-22T00:02:45.055Z,7.10
2022-08-22T00:03:09.412Z,8.50
2022-08-22T00:03:15.795Z,11.00
2022-08-22T00:05:55.208Z,12.10
2022-08-22T00:08:42.700Z,13.90
2022-08-22T00:11:37.949Z,12.80
2022-08-22T00:14:34.582Z,16.30
2022-08-22T00:17:33.801Z,11.70
2022-08-22T00:20:26.098Z,12.00
2022-08-22T00:23:18.456Z,14.80
2022-08-22T00:26:05.570Z,14.80
2022-08-22T00:28:50.161Z,15.00
2022-08-22T00:31:36.871Z,15.90
2022-08-22T00:34:26.484Z,18.00
2022-08-22T00:37:12.159Z,18.10
2022-08-22T00:39:59.554Z,16.50
2022-08-22T00:43:33.904Z,17.60
2022-08-22T00:46:46.946Z,16.80
2022-08-22T00:50:03.980Z,17.50
2022-08-22T00:53:26.781Z,19.20
2022-08-22T00:56:36.347Z,19.20
2022-08-22T00:59:42.891Z,22.80
2022-08-22T01:02:52.864Z,18.10
2022-08-22T01:05:58.427Z,20.00
2022-08-22T01:08:59.989Z,18.40
2022-08-22T01:12:26.966Z,26.80
2022-08-22T01:15:10.836Z,20.60
2022-08-22T01:18:27.087Z,25.50
2022-08-22T01:22:34.998Z,18.80
2022-08-22T01:26:15.957Z,23.80
2022-08-22T01:29:49.877Z,22.20
2022-08-22T01:33:50.511Z,21.90
2022-08-22T01:37:14.723Z,21.70
2022-08-22T01:40:54.087Z,23.30
2022-08-22T01:44:01.160Z,19.80
2022-08-22T01:46:55.192Z,22.60
2022-08-22T01:49:48.594Z,22.60
2022-08-22T01:52:43.615Z,23.00
2022-08-22T01:55:32.915Z,25.50
2022-08-22T01:58:24.453Z,24.50
2022-08-22T02:01:30.750Z,26.80
2022-08-22T02:04:15.613Z,22.90
2022-08-22T02:07:08.071Z,25.70
2022-08-22T02:10:00.529Z,28.00
2022-08-22T02:12:55.145Z,27.40
2022-08-22T02:15:50.703Z,25.50
2022-08-22T02:18:43.271Z,26.80
2022-08-22T02:21:29.492Z,26.50
2022-08-22T02:24:25.173Z,24.00
2022-08-22T02:27:18.515Z,28.50
2022-08-22T02:30:08.004Z,25.80
2022-08-22T02:33:05.662Z,27.90
2022-08-22T02:35:54.954Z,26.60
2022-08-22T02:38:44.089Z,27.50
2022-08-22T02:41:38.247Z,25.70
2022-08-22T02:44:30.459Z,26.70
2022-08-22T02:47:16.732Z,25.30
2022-08-22T02:50:04.655Z,27.00
2022-08-22T02:52:59.769Z,26.70
2022-08-22T02:55:56.677Z,25.80
2022-08-22T02:58:53.561Z,23.00
2022-08-22T03:01:46.550Z,31.30
2022-08-22T03:04:47.894Z,26.00
2022-08-22T03:07:42.234Z,28.00
2022-08-22T03:10:31.810Z,28.10
2022-08-22T03:13:19.858Z,27.70
2022-08-22T03:16:17.479Z,29.20
2022-08-22T03:19:07.069Z,32.20
2022-08-22T03:21:56.133Z,30.50
2022-08-22T03:24:43.903Z,32.00
2022-08-22T03:27:33.229Z,29.70
2022-08-22T03:30:20.369Z,25.80
2022-08-22T03:33:15.173Z,27.20
2022-08-22T03:36:11.433Z,32.80
2022-08-22T03:39:17.376Z,34.30
2022-08-22T03:42:22.453Z,30.10
2022-08-22T03:45:38.643Z,30.80
2022-08-22T03:49:11.741Z,24.60
2022-08-22T03:52:17.824Z,26.20
2022-08-22T03:55:31.254Z,26.00
2022-08-22T03:59:12.521Z,29.30
2022-08-22T04:02:43.075Z,25.60
2022-08-22T04:06:29.009Z,29.30
2022-08-22T04:10:00.350Z,24.50
2022-08-22T04:13:05.768Z,26.80
2022-08-22T04:16:41.875Z,22.40
2022-08-22T04:23:06.810Z,25.80
2022-08-22T04:25:48.512Z,24.00
2022-08-22T04:31:17.308Z,21.10
2022-08-22T04:34:02.239Z,20.10
2022-08-22T04:36:46.099Z,20.80
2022-08-22T04:39:31.765Z,24.30
2022-08-22T04:42:32.214Z,20.40
2022-08-22T04:45:19.555Z,24.00
2022-08-22T04:48:07.213Z,20.80
2022-08-22T04:50:55.201Z,21.50
2022-08-22T04:54:12.804Z,24.30
2022-08-22T04:57:09.126Z,25.70
2022-08-22T04:59:45.952Z,26.60
2022-08-22T05:02:31.277Z,20.50
2022-08-22T05:05:15.326Z,19.70
2022-08-22T05:07:57.942Z,18.50
2022-08-22T05:10:48.458Z,19.90
2022-08-22T05:13:32.801Z,19.40
2022-08-22T05:16:19.082Z,20.70
2022-08-22T05:19:03.008Z,21.70
2022-08-22T05:21:44.085Z,21.40
2022-08-22T05:24:28.275Z,17.60
2022-08-22T05:27:15.537Z,21.30
2022-08-22T05:29:57.145Z,18.10
2022-08-22T05:32:47.250Z,20.50
2022-08-22T05:35:35.011Z,20.50
2022-08-22T05:38:18.827Z,18.00
2022-08-22T05:41:06.420Z,18.20
2022-08-22T05:43:48.468Z,17.10
2022-08-22T05:46:41.540Z,18.70
2022-08-22T05:49:32.553Z,17.90
2022-08-22T05:52:26.183Z,15.50
2022-08-22T05:55:15.577Z,18.30
2022-08-22T05:58:12.060Z,17.30
2022-08-22T06:00:59.940Z,16.30
2022-08-22T06:03:48.249Z,14.30
2022-08-22T06:06:27.949Z,17.20
2022-08-22T06:09:19.448Z,16.10
2022-08-22T06:12:05.516Z,16.00
2022-08-22T06:14:57.955Z,21.40
2022-08-22T06:17:40.832Z,20.10
2022-08-22T06:20:23.444Z,14.10
2022-08-22T06:23:03.993Z,17.20
2022-08-22T06:25:47.031Z,19.60
2022-08-22T06:28:29.916Z,18.40
2022-08-22T06:31:09.520Z,18.30
2022-08-22T06:34:01.503Z,18.30
2022-08-22T06:36:42.514Z,20.00
2022-08-22T06:39:25.921Z,18.20
2022-08-22T06:42:12.116Z,21.70
2022-08-22T06:44:58.407Z,19.60
2022-08-22T06:47:49.863Z,18.50
2022-08-22T06:50:36.207Z,19.10
2022-08-22T06:53:19.714Z,18.30
2022-08-22T06:56:02.779Z,20.90
2022-08-22T06:58:45.482Z,24.00
2022-08-22T07:01:28.851Z,19.60
2022-08-22T07:04:11.319Z,21.60
2022-08-22T07:06:52.661Z,16.70
2022-08-22T07:09:38.722Z,20.50
2022-08-22T07:12:22.850Z,18.80
2022-08-22T07:15:22.956Z,19.80
2022-08-22T07:18:06.857Z,19.70
2022-08-22T07:20:48.440Z,21.90
2022-08-22T07:26:33.912Z,23.00
2022-08-22T07:29:30.128Z,19.30
2022-08-22T07:32:20.494Z,20.20
2022-08-22T07:35:17.101Z,17.70
2022-08-22T07:38:10.762Z,23.80
2022-08-22T07:41:02.147Z,21.60
2022-08-22T07:43:47.286Z,20.40
2022-08-22T07:46:37.383Z,17.90
2022-08-22T07:49:22.669Z,22.80
2022-08-22T07:52:07.625Z,19.20
2022-08-22T07:54:54.062Z,22.70
2022-08-22T07:57:36.160Z,22.20
2022-08-22T08:00:23.615Z,20.40
2022-08-22T08:03:07.399Z,21.50
2022-08-22T08:05:47.566Z,21.80
2022-08-22T08:08:33.109Z,21.70
2022-08-22T08:11:14.469Z,24.30
2022-08-22T08:13:54.804Z,22.10
2022-08-22T08:16:42.251Z,22.30
2022-08-22T08:19:20.985Z,23.90
2022-08-22T08:22:00.315Z,23.10
2022-08-22T08:24:43.551Z,26.30
2022-08-22T08:27:44.236Z,22.10
2022-08-22T08:30:29.003Z,21.30
2022-08-22T08:33:26.304Z,23.30
2022-08-22T08:36:13.784Z,20.80
2022-08-22T08:38:59.133Z,25.60
2022-08-22T08:42:20.559Z,21.40
2022-08-22T08:45:32.572Z,23.60
2022-08-22T08:49:08.638Z,21.00
2022-08-22T08:52:18.257Z,23.40
2022-08-22T08:55:22.546Z,24.50
2022-08-22T08:58:33.772Z,23.20
2022-08-22T09:01:49.472Z,23.50
2022-08-22T09:05:09.538Z,23.90
2022-08-22T09:12:33.818Z,25.80
2022-08-22T09:15:38.907Z,24.80
2022-08-22T09:19:00.315Z,26.70
2022-08-22T09:25:38.730Z,28.80
2022-08-22T09:28:29.396Z,25.10
2022-08-22T09:31:51.815Z,31.70
2022-08-22T09:34:39.074Z,28.90
2022-08-22T09:37:29.110Z,28.60
2022-08-22T09:40:18.887Z,29.40
2022-08-22T09:43:11.049Z,26.00
2022-08-22T09:46:14.537Z,25.70
2022-08-22T09:49:07.207Z,28.50
2022-08-22T09:51:54.921Z,25.50
2022-08-22T09:54:45.712Z,22.10
2022-08-22T09:57:38.554Z,22.20
2022-08-22T10:00:30.246Z,28.70
2022-08-22T10:03:23.432Z,32.50
2022-08-22T10:06:04.851Z,21.50
2022-08-22T10:08:52.025Z,30.70
2022-08-22T10:11:34.171Z,28.90
2022-08-22T10:14:25.390Z,25.70
2022-08-22T10:17:22.192Z,31.00
2022-08-22T10:20:22.796Z,28.60
2022-08-22T10:23:16.002Z,24.10
2022-08-22T10:26:08.793Z,29.00
2022-08-22T10:29:02.817Z,26.80
2022-08-22T10:31:58.994Z,27.80
2022-08-22T10:34:55.517Z,26.20
2022-08-22T10:37:46.182Z,24.50
2022-08-22T10:40:33.410Z,25.50
2022-08-22T10:43:28.848Z,32.20
2022-08-22T10:46:13.777Z,30.30
2022-08-22T10:48:58.275Z,29.30
2022-08-22T10:51:52.983Z,31.20
2022-08-22T10:54:47.455Z,28.10
2022-08-22T10:58:09.788Z,30.50
2022-08-22T11:01:00.544Z,29.10
2022-08-22T11:03:58.395Z,27.00
2022-08-22T11:06:52.781Z,27.60
2022-08-22T11:09:46.873Z,28.90
2022-08-22T11:12:46.927Z,30.50
2022-08-22T11:16:01.324Z,28.00
2022-08-22T11:19:39.139Z,29.70
2022-08-22T11:22:34.880Z,29.70
2022-08-22T11:25:38.417Z,26.70
2022-08-22T11:29:12.341Z,28.90
2022-08-22T11:32:07.819Z,24.30
2022-08-22T11:35:00.455Z,25.20
2022-08-22T11:37:56.327Z,24.20
2022-08-22T11:40:46.900Z,22.90
2022-08-22T11:43:55.605Z,23.40
2022-08-22T11:46:39.603Z,24.80
2022-08-22T11:49:49.703Z,23.10
2022-08-22T11:52:52.071Z,20.60
2022-08-22T11:55:36.381Z,25.50
2022-08-22T11:58:41.890Z,21.60
2022-08-22T12:01:34.301Z,24.40
2022-08-22T12:04:21.329Z,21.70
2022-08-22T12:07:14.557Z,20.90
2022-08-22T12:10:01.709Z,20.00
2022-08-22T12:13:01.548Z,20.60
2022-08-22T12:15:54.369Z,19.80
2022-08-22T12:18:56.832Z,19.20
2022-08-22T12:22:49.882Z,17.80
2022-08-22T12:25:51.714Z,18.60
2022-08-22T12:31:34.508Z,16.10
2022-08-22T12:34:28.513Z,17.20
2022-08-22T12:37:20.747Z,19.90
2022-08-22T12:40:43.581Z,20.30
2022-08-22T12:43:59.053Z,24.00
2022-08-22T12:46:59.973Z,23.30
2022-08-22T12:50:08.652Z,23.50
2022-08-22T12:53:20.075Z,19.60
2022-08-22T12:56:16.144Z,23.90
2022-08-22T12:59:27.352Z,17.20
2022-08-22T13:02:16.893Z,20.30
2022-08-22T13:05:01.177Z,21.00
2022-08-22T13:07:41.762Z,17.90
2022-08-22T13:10:49.151Z,20.00
2022-08-22T13:13:39.323Z,19.20
2022-08-22T13:16:21.391Z,20.00
2022-08-22T13:19:07.691Z,17.30
2022-08-22T13:21:54.746Z,18.90
2022-08-22T13:24:52.383Z,21.00
2022-08-22T13:27:34.891Z,22.70
2022-08-22T13:30:21.968Z,15.50
2022-08-22T13:33:09.791Z,20.60
2022-08-22T13:35:53.232Z,19.10
2022-08-22T13:38:46.286Z,21.40
2022-08-22T13:41:31.523Z,17.20
2022-08-22T13:44:27.732Z,27.00
2022-08-22T13:47:15.215Z,26.30
2022-08-22T13:50:05.443Z,30.20
2022-08-22T13:52:55.174Z,23.60
2022-08-22T13:55:44.133Z,23.30
2022-08-22T13:58:39.234Z,17.60
2022-08-22T14:01:50.734Z,18.20
2022-08-22T14:07:38.301Z,16.20
2022-08-22T14:10:27.646Z,15.90
2022-08-22T14:13:49.443Z,19.10
2022-08-22T14:16:33.475Z,19.90
2022-08-22T14:19:17.123Z,53.90
2022-08-22T14:21:59.613Z,20.10
2022-08-22T14:24:45.745Z,16.70
2022-08-22T14:27:39.739Z,20.70
2022-08-22T14:30:26.395Z,22.10
2022-08-22T14:33:13.400Z,19.90
2022-08-22T14:35:57.371Z,24.00
2022-08-22T14:38:46.176Z,22.00
2022-08-22T14:41:55.677Z,21.80
2022-08-22T14:44:43.344Z,21.10
2022-08-22T14:47:55.435Z,17.90
2022-08-22T14:50:55.452Z,20.30
2022-08-22T14:53:37.228Z,20.50
2022-08-22T14:56:21.703Z,19.10
2022-08-22T14:59:05.625Z,20.90
2022-08-22T15:02:06.130Z,19.50
2022-08-22T15:04:48.649Z,24.10
2022-08-22T15:07:33.618Z,20.30
2022-08-22T15:10:24.923Z,21.50
2022-08-22T15:13:08.585Z,18.90
2022-08-22T15:15:54.167Z,20.90
2022-08-22T15:18:41.607Z,18.10
2022-08-22T15:21:32.373Z,17.80
2022-08-22T15:24:17.012Z,20.20
2022-08-22T15:26:58.915Z,20.50
2022-08-22T15:32:41.860Z,21.40
2022-08-22T15:35:31.560Z,18.60
2022-08-22T15:38:28.127Z,20.50
2022-08-22T15:41:49.530Z,22.90
2022-08-22T15:44:36.618Z,18.50
2022-08-22T15:47:36.141Z,19.10
2022-08-22T15:50:29.593Z,22.60
2022-08-22T15:53:29.039Z,17.00
2022-08-22T15:56:29.799Z,21.10
2022-08-22T15:59:54.102Z,62.20
2022-08-22T16:02:37.870Z,24.70
2022-08-22T16:05:56.221Z,19.90
2022-08-22T16:08:51.437Z,24.80
2022-08-22T16:11:38.249Z,21.60
2022-08-22T16:14:52.002Z,19.30
2022-08-22T16:17:53.300Z,19.90
2022-08-22T16:20:58.933Z,17.40
2022-08-22T16:24:33.847Z,21.20
2022-08-22T16:27:28.017Z,15.50
2022-08-22T16:30:16.802Z,18.70
2022-08-22T16:33:00.945Z,17.70
2022-08-22T16:36:47.933Z,19.80
2022-08-22T16:42:41.540Z,16.90
2022-08-22T16:45:35.082Z,15.30
2022-08-22T16:48:36.279Z,19.30
2022-08-22T16:51:21.236Z,35.40
2022-08-22T16:54:44.290Z,24.40
2022-08-22T17:00:19.967Z,21.10
2022-08-22T17:03:20.779Z,19.20
2022-08-22T17:06:18.441Z,23.30
2022-08-22T17:09:31.814Z,20.00
2022-08-22T17:12:24.921Z,27.80
2022-08-22T17:15:17.049Z,23.60
2022-08-22T17:18:28.393Z,27.40
2022-08-22T17:21:15.873Z,23.50
2022-08-22T17:24:07.426Z,25.20
2022-08-22T17:26:59.688Z,27.50
2022-08-22T17:29:59.450Z,31.30
2022-08-22T17:33:00.343Z,27.10
2022-08-22T17:36:02.064Z,33.80
2022-08-22T17:39:03.144Z,34.10
2022-08-22T17:41:51.445Z,33.10
2022-08-22T17:44:45.279Z,28.60
2022-08-22T17:47:29.098Z,30.20
2022-08-22T17:50:19.949Z,30.20
2022-08-22T17:53:04.810Z,30.30
2022-08-22T17:56:03.916Z,30.60
2022-08-22T17:58:51.658Z,36.30
2022-08-22T18:01:55.067Z,35.50
2022-08-22T18:04:47.620Z,35.30
2022-08-22T18:07:54.442Z,34.90
2022-08-22T18:10:46.769Z,34.60
2022-08-22T18:13:43.693Z,36.30
2022-08-22T18:16:29.893Z,34.90
2022-08-22T18:19:18.439Z,38.00
2022-08-22T18:22:04.548Z,39.40
2022-08-22T18:24:51.126Z,38.50
2022-08-22T18:27:35.637Z,44.10
2022-08-22T18:30:25.837Z,41.30
2022-08-22T18:33:14.124Z,40.80
2022-08-22T18:36:02.302Z,40.50
2022-08-22T18:38:51.891Z,43.10
2022-08-22T18:41:44.040Z,41.90
2022-08-22T18:44:29.867Z,43.30
2022-08-22T18:47:17.602Z,45.60
2022-08-22T18:49:58.076Z,40.60
2022-08-22T18:52:44.330Z,47.60
2022-08-22T18:55:59.422Z,43.60
2022-08-22T18:59:06.788Z,45.10
2022-08-22T19:02:02.788Z,46.80
2022-08-22T19:05:27.162Z,50.30
2022-08-22T19:08:53.073Z,51.40
2022-08-22T19:11:52.833Z,50.10
2022-08-22T19:15:02.184Z,50.30
2022-08-22T19:18:26.750Z,54.70
2022-08-22T19:21:47.638Z,54.00
2022-08-22T19:25:19.798Z,57.10
2022-08-22T19:32:05.968Z,49.20
2022-08-22T19:34:49.270Z,53.10
2022-08-22T19:37:51.559Z,51.60
2022-08-22T19:41:07.766Z,54.60
2022-08-22T19:43:44.332Z,42.50
2022-08-22T19:46:42.392Z,43.40
2022-08-22T19:49:36.178Z,33.70
2022-08-22T19:52:35.434Z,38.60
2022-08-22T19:55:29.954Z,30.90
2022-08-22T19:58:31.919Z,31.20
2022-08-22T20:01:43.071Z,30.40
2022-08-22T20:05:21.521Z,32.00
2022-08-22T20:08:43.772Z,30.10
2022-08-22T20:11:50.765Z,33.30
2022-08-22T20:14:36.209Z,30.20
2022-08-22T20:17:43.677Z,26.40
2022-08-22T20:20:55.370Z,21.70
2022-08-22T20:23:35.328Z,15.90
2022-08-22T20:26:15.496Z,13.60
2022-08-22T20:28:55.048Z,13.10
2022-08-22T20:31:37.031Z,11.60
2022-08-22T20:34:24.743Z,12.90
2022-08-22T20:37:27.029Z,12.80
2022-08-22T20:40:56.078Z,12.40
2022-08-22T20:43:39.238Z,8.80
2022-08-22T20:46:43.711Z,10.10
2022-08-22T20:49:26.031Z,10.20
2022-08-22T20:52:06.331Z,8.30
2022-08-22T20:54:58.305Z,12.30
2022-08-22T20:57:35.785Z,7.10
2022-08-22T21:00:20.052Z,6.40
2022-08-22T21:03:02.649Z,7.60
2022-08-22T21:05:45.328Z,9.00
2022-08-22T21:08:26.396Z,8.00
2022-08-22T21:11:24.524Z,9.90
2022-08-22T21:14:01.424Z,10.50
2022-08-22T21:16:37.840Z,8.40
2022-08-22T21:19:26.474Z,6.20
2022-08-22T21:22:20.057Z,7.50
2022-08-22T21:25:05.288Z,8.60
2022-08-22T21:27:41.375Z,7.70
2022-08-22T21:30:29.311Z,8.00
2022-08-22T21:33:05.876Z,7.50
2022-08-22T21:35:42.413Z,8.20
2022-08-22T21:38:22.536Z,8.50
2022-08-22T21:41:05.543Z,8.00
2022-08-22T21:43:43.054Z,7.30
2022-08-22T21:46:32.777Z,9.00
2022-08-22T21:49:20.149Z,9.10
2022-08-22T21:51:56.524Z,9.20
2022-08-22T21:54:43.488Z,8.50
2022-08-22T21:57:38.409Z,7.50
2022-08-22T22:00:49.917Z,9.90
2022-08-22T22:03:30.382Z,9.20
2022-08-22T22:06:08.615Z,8.30
2022-08-22T22:08:44.558Z,10.00
2022-08-22T22:11:21.739Z,8.80
2022-08-22T22:13:58.004Z,9.30
2022-08-22T22:16:34.463Z,9.90
2022-08-22T22:19:12.898Z,9.40
2022-08-22T22:21:48.792Z,8.60
2022-08-22T22:24:24.757Z,10.70
2022-08-22T22:27:02.415Z,11.80
2022-08-22T22:29:39.424Z,8.90
2022-08-22T22:32:15.652Z,7.40
2022-08-22T22:34:52.231Z,8.90
2022-08-22T22:37:28.797Z,7.90
2022-08-22T22:40:09.366Z,7.60
2022-08-22T22:42:45.499Z,8.30
2022-08-22T22:45:21.943Z,9.50
2022-08-22T22:47:58.116Z,7.40
2022-08-22T22:50:38.145Z,7.10
2022-08-22T22:53:19.851Z,9.30
2022-08-22T22:55:59.997Z,7.70
2022-08-22T22:58:37.730Z,8.90
2022-08-22T23:01:20.338Z,8.30
2022-08-22T23:04:05.464Z,8.20
2022-08-22T23:06:42.007Z,8.80
2022-08-22T23:09:17.904Z,8.20
2022-08-22T23:11:54.308Z,8.50
2022-08-22T23:14:30.761Z,10.10
2022-08-22T23:17:08.088Z,9.20
2022-08-22T23:19:46.245Z,9.10
2022-08-22T23:22:23.962Z,8.50
2022-08-22T23:24:59.921Z,8.40
2022-08-22T23:27:36.787Z,8.10
2022-08-22T23:30:16.011Z,9.30
2022-08-22T23:32:52.053Z,8.30
2022-08-22T23:35:27.894Z,8.60
2022-08-22T23:38:03.975Z,7.90
2022-08-22T23:40:39.942Z,8.00
2022-08-22T23:43:15.878Z,12.40
2022-08-22T23:45:52.009Z,12.10
2022-08-22T23:54:06.592Z,10.80
2022-08-22T23:56:48.452Z,9.20
2022-08-22T23:59:30.996Z,8.30
